sensor_id;sensor_type;location;lat;lon;timestamp;P1;durP1;ratioP1;P2;durP2;ratioP2
21624;SDS011;10974;51.034;3.744;2022-07-22T00:01:55;2.20;;;1.43;;
21624;SDS011;10974;51.034;3.744;2022-07-22T00:04:21;1.67;;;1.30;;
21624;SDS011;10974;51.034;3.744;2022-07-22T00:06:47;1.30;;;1.13;;
21624;SDS011;10974;51.034;3.744;2022-07-22T00:09:12;1.07;;;0.97;;
21624;SDS011;10974;51.034;3.744;2022-07-22T00:11:38;5.47;;;1.30;;
21624;SDS011;10974;51.034;3.744;2022-07-22T00:14:04;1.60;;;1.10;;
21624;SDS011;10974;51.034;3.744;2022-07-22T00:16:30;1.30;;;1.00;;
21624;SDS011;10974;51.034;3.744;2022-07-22T00:18:56;1.37;;;1.10;;
21624;SDS011;10974;51.034;3.744;2022-07-22T00:21:21;1.10;;;0.90;;
21624;SDS011;10974;51.034;3.744;2022-07-22T00:23:47;3.17;;;1.20;;
21624;SDS011;10974;51.034;3.744;2022-07-22T00:26:13;1.33;;;1.20;;
21624;SDS011;10974;51.034;3.744;2022-07-22T00:28:39;3.63;;;1.30;;
21624;SDS011;10974;51.034;3.744;2022-07-22T00:31:05;3.43;;;1.40;;
21624;SDS011;10974;51.034;3.744;2022-07-22T00:33:31;2.10;;;1.20;;
21624;SDS011;10974;51.034;3.744;2022-07-22T00:35:56;1.23;;;1.00;;
21624;SDS011;10974;51.034;3.744;2022-07-22T00:38:22;1.20;;;1.10;;
21624;SDS011;10974;51.034;3.744;2022-07-22T00:40:48;1.33;;;1.10;;
21624;SDS011;10974;51.034;3.744;2022-07-22T00:43:13;2.07;;;1.27;;
21624;SDS011;10974;51.034;3.744;2022-07-22T00:45:39;1.30;;;1.20;;
21624;SDS011;10974;51.034;3.744;2022-07-22T00:48:05;1.93;;;1.10;;
21624;SDS011;10974;51.034;3.744;2022-07-22T00:50:31;1.30;;;1.10;;
21624;SDS011;10974;51.034;3.744;2022-07-22T00:52:57;1.23;;;1.10;;
21624;SDS011;10974;51.034;3.744;2022-07-22T00:55:22;2.30;;;1.20;;
21624;SDS011;10974;51.034;3.744;2022-07-22T00:57:48;1.90;;;1.33;;
21624;SDS011;10974;51.034;3.744;2022-07-22T01:00:18;1.10;;;1.00;;
21624;SDS011;10974;51.034;3.744;2022-07-22T01:02:45;1.67;;;1.00;;
21624;SDS011;10974;51.034;3.744;2022-07-22T01:05:11;2.10;;;1.10;;
21624;SDS011;10974;51.034;3.744;2022-07-22T01:07:37;1.43;;;1.20;;
21624;SDS011;10974;51.034;3.744;2022-07-22T01:10:04;1.73;;;1.10;;
21624;SDS011;10974;51.034;3.744;2022-07-22T01:12:30;1.17;;;1.07;;
21624;SDS011;10974;51.034;3.744;2022-07-22T01:14:57;1.70;;;1.20;;
21624;SDS011;10974;51.034;3.744;2022-07-22T01:17:22;1.13;;;1.10;;
21624;SDS011;10974;51.034;3.744;2022-07-22T01:19:48;2.20;;;1.13;;
21624;SDS011;10974;51.034;3.744;2022-07-22T01:22:15;1.50;;;1.10;;
21624;SDS011;10974;51.034;3.744;2022-07-22T01:24:41;1.93;;;1.00;;
21624;SDS011;10974;51.034;3.744;2022-07-22T01:27:07;2.50;;;1.10;;
21624;SDS011;10974;51.034;3.744;2022-07-22T01:29:32;1.53;;;1.43;;
21624;SDS011;10974;51.034;3.744;2022-07-22T01:31:58;1.00;;;0.90;;
21624;SDS011;10974;51.034;3.744;2022-07-22T01:34:24;1.47;;;1.10;;
21624;SDS011;10974;51.034;3.744;2022-07-22T01:36:50;1.27;;;1.17;;
21624;SDS011;10974;51.034;3.744;2022-07-22T01:39:16;1.63;;;1.20;;
21624;SDS011;10974;51.034;3.744;2022-07-22T01:41:42;1.30;;;1.13;;
21624;SDS011;10974;51.034;3.744;2022-07-22T01:44:08;1.27;;;1.13;;
21624;SDS011;10974;51.034;3.744;2022-07-22T01:46:34;1.00;;;0.90;;
21624;SDS011;10974;51.034;3.744;2022-07-22T01:49:00;1.57;;;1.00;;
21624;SDS011;10974;51.034;3.744;2022-07-22T01:51:26;2.30;;;0.83;;
21624;SDS011;10974;51.034;3.744;2022-07-22T01:53:51;1.20;;;0.93;;
21624;SDS011;10974;51.034;3.744;2022-07-22T01:56:17;1.20;;;1.10;;
21624;SDS011;10974;51.034;3.744;2022-07-22T01:58:43;1.27;;;1.00;;
21624;SDS011;10974;51.034;3.744;2022-07-22T02:01:08;0.87;;;0.83;;
21624;SDS011;10974;51.034;3.744;2022-07-22T02:03:34;0.90;;;0.90;;
21624;SDS011;10974;51.034;3.744;2022-07-22T02:06:00;1.30;;;1.10;;
21624;SDS011;10974;51.034;3.744;2022-07-22T02:08:26;1.50;;;1.13;;
21624;SDS011;10974;51.034;3.744;2022-07-22T02:10:52;2.07;;;1.10;;
21624;SDS011;10974;51.034;3.744;2022-07-22T02:13:18;1.53;;;1.10;;
21624;SDS011;10974;51.034;3.744;2022-07-22T02:15:43;1.43;;;1.07;;
21624;SDS011;10974;51.034;3.744;2022-07-22T02:18:12;1.97;;;1.03;;
21624;SDS011;10974;51.034;3.744;2022-07-22T02:20:40;1.10;;;1.00;;
21624;SDS011;10974;51.034;3.744;2022-07-22T02:23:06;1.87;;;1.03;;
21624;SDS011;10974;51.034;3.744;2022-07-22T02:25:32;0.93;;;0.83;;
21624;SDS011;10974;51.034;3.744;2022-07-22T02:27:58;1.70;;;1.13;;
21624;SDS011;10974;51.034;3.744;2022-07-22T02:30:24;1.17;;;1.17;;
21624;SDS011;10974;51.034;3.744;2022-07-22T02:32:50;2.50;;;1.07;;
21624;SDS011;10974;51.034;3.744;2022-07-22T02:35:15;1.00;;;0.90;;
21624;SDS011;10974;51.034;3.744;2022-07-22T02:37:41;1.43;;;1.10;;
21624;SDS011;10974;51.034;3.744;2022-07-22T02:40:07;1.10;;;1.00;;
21624;SDS011;10974;51.034;3.744;2022-07-22T02:42:33;1.13;;;0.97;;
21624;SDS011;10974;51.034;3.744;2022-07-22T02:44:59;1.17;;;1.07;;
21624;SDS011;10974;51.034;3.744;2022-07-22T02:47:25;2.13;;;1.10;;
21624;SDS011;10974;51.034;3.744;2022-07-22T02:49:51;1.37;;;1.00;;
21624;SDS011;10974;51.034;3.744;2022-07-22T02:52:17;1.20;;;1.10;;
21624;SDS011;10974;51.034;3.744;2022-07-22T02:54:42;1.20;;;1.10;;
21624;SDS011;10974;51.034;3.744;2022-07-22T02:57:08;1.57;;;1.37;;
21624;SDS011;10974;51.034;3.744;2022-07-22T02:59:34;1.23;;;0.80;;
21624;SDS011;10974;51.034;3.744;2022-07-22T03:02:00;1.53;;;0.90;;
21624;SDS011;10974;51.034;3.744;2022-07-22T03:04:25;1.10;;;1.00;;
21624;SDS011;10974;51.034;3.744;2022-07-22T03:06:51;1.20;;;1.10;;
21624;SDS011;10974;51.034;3.744;2022-07-22T03:09:17;1.90;;;1.30;;
21624;SDS011;10974;51.034;3.744;2022-07-22T03:11:43;2.60;;;1.10;;
21624;SDS011;10974;51.034;3.744;2022-07-22T03:14:08;1.40;;;1.10;;
21624;SDS011;10974;51.034;3.744;2022-07-22T03:16:34;1.10;;;1.00;;
21624;SDS011;10974;51.034;3.744;2022-07-22T03:19:00;1.10;;;1.00;;
21624;SDS011;10974;51.034;3.744;2022-07-22T03:21:25;1.23;;;1.13;;
21624;SDS011;10974;51.034;3.744;2022-07-22T03:23:52;2.10;;;1.50;;
21624;SDS011;10974;51.034;3.744;2022-07-22T03:26:19;2.30;;;0.93;;
21624;SDS011;10974;51.034;3.744;2022-07-22T03:28:46;1.20;;;1.10;;
21624;SDS011;10974;51.034;3.744;2022-07-22T03:31:12;1.57;;;1.00;;
21624;SDS011;10974;51.034;3.744;2022-07-22T03:33:37;1.83;;;1.00;;
21624;SDS011;10974;51.034;3.744;2022-07-22T03:36:03;1.07;;;0.90;;
21624;SDS011;10974;51.034;3.744;2022-07-22T03:38:30;0.93;;;0.93;;
21624;SDS011;10974;51.034;3.744;2022-07-22T03:40:56;1.63;;;0.93;;
21624;SDS011;10974;51.034;3.744;2022-07-22T03:43:22;1.33;;;0.90;;
21624;SDS011;10974;51.034;3.744;2022-07-22T03:45:48;1.47;;;1.03;;
21624;SDS011;10974;51.034;3.744;2022-07-22T03:48:13;2.33;;;1.10;;
21624;SDS011;10974;51.034;3.744;2022-07-22T03:50:39;1.20;;;1.10;;
21624;SDS011;10974;51.034;3.744;2022-07-22T03:53:05;1.33;;;1.23;;
21624;SDS011;10974;51.034;3.744;2022-07-22T03:55:30;1.50;;;1.10;;
21624;SDS011;10974;51.034;3.744;2022-07-22T03:57:56;1.70;;;0.97;;
21624;SDS011;10974;51.034;3.744;2022-07-22T04:00:22;0.83;;;0.80;;
21624;SDS011;10974;51.034;3.744;2022-07-22T04:02:47;1.00;;;0.90;;
21624;SDS011;10974;51.034;3.744;2022-07-22T04:05:13;1.33;;;1.03;;
21624;SDS011;10974;51.034;3.744;2022-07-22T04:07:39;0.90;;;0.90;;
21624;SDS011;10974;51.034;3.744;2022-07-22T04:10:05;3.30;;;1.10;;
21624;SDS011;10974;51.034;3.744;2022-07-22T04:12:32;1.37;;;0.97;;
21624;SDS011;10974;51.034;3.744;2022-07-22T04:15:03;0.90;;;0.90;;
21624;SDS011;10974;51.034;3.744;2022-07-22T04:17:30;1.23;;;1.00;;
21624;SDS011;10974;51.034;3.744;2022-07-22T04:19:56;1.30;;;1.10;;
21624;SDS011;10974;51.034;3.744;2022-07-22T04:22:22;1.23;;;1.00;;
21624;SDS011;10974;51.034;3.744;2022-07-22T04:24:48;1.20;;;1.10;;
21624;SDS011;10974;51.034;3.744;2022-07-22T04:27:14;1.37;;;1.10;;
21624;SDS011;10974;51.034;3.744;2022-07-22T04:29:39;2.60;;;1.00;;
21624;SDS011;10974;51.034;3.744;2022-07-22T04:32:05;1.97;;;1.20;;
21624;SDS011;10974;51.034;3.744;2022-07-22T04:34:31;1.03;;;0.93;;
21624;SDS011;10974;51.034;3.744;2022-07-22T04:36:57;2.10;;;1.20;;
21624;SDS011;10974;51.034;3.744;2022-07-22T04:39:22;1.57;;;1.10;;
21624;SDS011;10974;51.034;3.744;2022-07-22T04:41:48;0.80;;;0.80;;
21624;SDS011;10974;51.034;3.744;2022-07-22T04:44:14;0.90;;;0.90;;
21624;SDS011;10974;51.034;3.744;2022-07-22T04:46:39;1.20;;;0.83;;
21624;SDS011;10974;51.034;3.744;2022-07-22T04:49:05;1.60;;;1.07;;
21624;SDS011;10974;51.034;3.744;2022-07-22T04:51:31;2.40;;;1.10;;
21624;SDS011;10974;51.034;3.744;2022-07-22T04:53:56;1.43;;;0.90;;
21624;SDS011;10974;51.034;3.744;2022-07-22T04:56:22;1.37;;;1.07;;
21624;SDS011;10974;51.034;3.744;2022-07-22T04:58:48;1.30;;;1.00;;
21624;SDS011;10974;51.034;3.744;2022-07-22T05:01:13;1.43;;;1.10;;
21624;SDS011;10974;51.034;3.744;2022-07-22T05:03:40;1.13;;;0.90;;
21624;SDS011;10974;51.034;3.744;2022-07-22T05:06:06;1.77;;;1.17;;
21624;SDS011;10974;51.034;3.744;2022-07-22T05:08:32;0.93;;;0.80;;
21624;SDS011;10974;51.034;3.744;2022-07-22T05:10:57;0.97;;;0.90;;
21624;SDS011;10974;51.034;3.744;2022-07-22T05:13:23;0.90;;;0.90;;
21624;SDS011;10974;51.034;3.744;2022-07-22T05:15:49;1.73;;;0.80;;
21624;SDS011;10974;51.034;3.744;2022-07-22T05:18:15;2.20;;;1.10;;
21624;SDS011;10974;51.034;3.744;2022-07-22T05:20:41;0.97;;;0.90;;
21624;SDS011;10974;51.034;3.744;2022-07-22T05:23:07;1.27;;;1.17;;
21624;SDS011;10974;51.034;3.744;2022-07-22T05:25:32;1.40;;;1.10;;
21624;SDS011;10974;51.034;3.744;2022-07-22T05:27:58;1.13;;;0.90;;
21624;SDS011;10974;51.034;3.744;2022-07-22T05:30:24;1.03;;;0.90;;
21624;SDS011;10974;51.034;3.744;2022-07-22T05:32:50;0.90;;;0.80;;
21624;SDS011;10974;51.034;3.744;2022-07-22T05:35:16;1.23;;;1.13;;
21624;SDS011;10974;51.034;3.744;2022-07-22T05:37:42;1.63;;;1.00;;
21624;SDS011;10974;51.034;3.744;2022-07-22T05:40:08;0.90;;;0.90;;
21624;SDS011;10974;51.034;3.744;2022-07-22T05:42:34;1.20;;;1.10;;
21624;SDS011;10974;51.034;3.744;2022-07-22T05:44:59;1.97;;;1.20;;
21624;SDS011;10974;51.034;3.744;2022-07-22T05:47:25;1.00;;;0.90;;
21624;SDS011;10974;51.034;3.744;2022-07-22T05:49:51;1.40;;;1.13;;
21624;SDS011;10974;51.034;3.744;2022-07-22T05:52:17;0.97;;;0.87;;
21624;SDS011;10974;51.034;3.744;2022-07-22T05:54:43;0.90;;;0.83;;
21624;SDS011;10974;51.034;3.744;2022-07-22T05:57:08;3.50;;;1.47;;
21624;SDS011;10974;51.034;3.744;2022-07-22T05:59:35;2.23;;;1.47;;
21624;SDS011;10974;51.034;3.744;2022-07-22T06:02:01;1.47;;;1.37;;
21624;SDS011;10974;51.034;3.744;2022-07-22T06:04:27;2.20;;;1.53;;
21624;SDS011;10974;51.034;3.744;2022-07-22T06:06:53;1.63;;;1.50;;
21624;SDS011;10974;51.034;3.744;2022-07-22T06:09:19;2.80;;;1.60;;
21624;SDS011;10974;51.034;3.744;2022-07-22T06:11:44;2.00;;;1.60;;
21624;SDS011;10974;51.034;3.744;2022-07-22T06:14:11;1.80;;;1.30;;
21624;SDS011;10974;51.034;3.744;2022-07-22T06:16:37;1.30;;;1.20;;
21624;SDS011;10974;51.034;3.744;2022-07-22T06:19:03;2.03;;;1.50;;
21624;SDS011;10974;51.034;3.744;2022-07-22T06:21:28;1.90;;;1.73;;
21624;SDS011;10974;51.034;3.744;2022-07-22T06:23:54;3.20;;;1.60;;
21624;SDS011;10974;51.034;3.744;2022-07-22T06:26:20;2.53;;;1.60;;
21624;SDS011;10974;51.034;3.744;2022-07-22T06:28:45;1.63;;;1.53;;
21624;SDS011;10974;51.034;3.744;2022-07-22T06:31:11;1.53;;;1.40;;
21624;SDS011;10974;51.034;3.744;2022-07-22T06:33:37;1.90;;;1.63;;
21624;SDS011;10974;51.034;3.744;2022-07-22T06:36:03;2.73;;;1.70;;
21624;SDS011;10974;51.034;3.744;2022-07-22T06:38:30;1.97;;;1.60;;
21624;SDS011;10974;51.034;3.744;2022-07-22T06:40:56;1.77;;;1.60;;
21624;SDS011;10974;51.034;3.744;2022-07-22T06:43:22;1.80;;;1.50;;
21624;SDS011;10974;51.034;3.744;2022-07-22T06:45:48;2.30;;;1.80;;
21624;SDS011;10974;51.034;3.744;2022-07-22T06:48:13;2.60;;;1.60;;
21624;SDS011;10974;51.034;3.744;2022-07-22T06:50:39;1.57;;;1.47;;
21624;SDS011;10974;51.034;3.744;2022-07-22T06:53:05;2.57;;;1.50;;
21624;SDS011;10974;51.034;3.744;2022-07-22T06:55:30;1.80;;;1.20;;
21624;SDS011;10974;51.034;3.744;2022-07-22T06:57:57;2.87;;;1.80;;
21624;SDS011;10974;51.034;3.744;2022-07-22T07:00:23;2.60;;;1.60;;
21624;SDS011;10974;51.034;3.744;2022-07-22T07:02:48;1.80;;;1.30;;
21624;SDS011;10974;51.034;3.744;2022-07-22T07:05:15;2.80;;;1.80;;
21624;SDS011;10974;51.034;3.744;2022-07-22T07:07:41;1.57;;;1.40;;
21624;SDS011;10974;51.034;3.744;2022-07-22T07:10:07;2.63;;;1.90;;
21624;SDS011;10974;51.034;3.744;2022-07-22T07:12:35;2.07;;;1.40;;
21624;SDS011;10974;51.034;3.744;2022-07-22T07:15:00;2.93;;;1.63;;
21624;SDS011;10974;51.034;3.744;2022-07-22T07:17:26;2.60;;;1.40;;
21624;SDS011;10974;51.034;3.744;2022-07-22T07:19:52;4.87;;;1.87;;
21624;SDS011;10974;51.034;3.744;2022-07-22T07:22:17;1.73;;;1.40;;
21624;SDS011;10974;51.034;3.744;2022-07-22T07:24:43;1.87;;;1.40;;
21624;SDS011;10974;51.034;3.744;2022-07-22T07:27:09;2.57;;;1.80;;
21624;SDS011;10974;51.034;3.744;2022-07-22T07:29:35;2.30;;;1.70;;
21624;SDS011;10974;51.034;3.744;2022-07-22T07:32:01;3.23;;;1.97;;
21624;SDS011;10974;51.034;3.744;2022-07-22T07:34:26;3.63;;;2.10;;
21624;SDS011;10974;51.034;3.744;2022-07-22T07:36:52;2.50;;;2.20;;
21624;SDS011;10974;51.034;3.744;2022-07-22T07:39:18;2.90;;;1.93;;
21624;SDS011;10974;51.034;3.744;2022-07-22T07:41:43;2.57;;;1.83;;
21624;SDS011;10974;51.034;3.744;2022-07-22T07:44:09;2.80;;;2.00;;
21624;SDS011;10974;51.034;3.744;2022-07-22T07:46:35;2.00;;;1.87;;
21624;SDS011;10974;51.034;3.744;2022-07-22T07:49:00;3.23;;;1.97;;
21624;SDS011;10974;51.034;3.744;2022-07-22T07:51:26;1.80;;;1.70;;
21624;SDS011;10974;51.034;3.744;2022-07-22T07:53:51;1.70;;;1.60;;
21624;SDS011;10974;51.034;3.744;2022-07-22T07:56:17;2.53;;;1.57;;
21624;SDS011;10974;51.034;3.744;2022-07-22T07:58:43;2.90;;;2.20;;
21624;SDS011;10974;51.034;3.744;2022-07-22T08:01:08;3.20;;;2.20;;
21624;SDS011;10974;51.034;3.744;2022-07-22T08:03:34;2.67;;;2.10;;
21624;SDS011;10974;51.034;3.744;2022-07-22T08:06:00;2.63;;;1.83;;
21624;SDS011;10974;51.034;3.744;2022-07-22T08:08:26;1.87;;;1.70;;
21624;SDS011;10974;51.034;3.744;2022-07-22T08:10:52;2.60;;;2.20;;
21624;SDS011;10974;51.034;3.744;2022-07-22T08:13:17;2.13;;;1.93;;
21624;SDS011;10974;51.034;3.744;2022-07-22T08:15:43;2.43;;;2.20;;
21624;SDS011;10974;51.034;3.744;2022-07-22T08:18:09;3.67;;;2.30;;
21624;SDS011;10974;51.034;3.744;2022-07-22T08:20:35;3.17;;;2.90;;
21624;SDS011;10974;51.034;3.744;2022-07-22T08:23:00;5.80;;;5.30;;
21624;SDS011;10974;51.034;3.744;2022-07-22T08:25:26;6.10;;;5.50;;
21624;SDS011;10974;51.034;3.744;2022-07-22T08:27:52;5.70;;;5.20;;
21624;SDS011;10974;51.034;3.744;2022-07-22T08:30:18;7.70;;;5.57;;
21624;SDS011;10974;51.034;3.744;2022-07-22T08:32:45;5.80;;;5.23;;
21624;SDS011;10974;51.034;3.744;2022-07-22T08:35:11;8.00;;;7.30;;
21624;SDS011;10974;51.034;3.744;2022-07-22T08:37:37;7.03;;;6.43;;
21624;SDS011;10974;51.034;3.744;2022-07-22T08:40:05;6.67;;;6.17;;
21624;SDS011;10974;51.034;3.744;2022-07-22T08:42:32;6.80;;;6.30;;
21624;SDS011;10974;51.034;3.744;2022-07-22T08:45:02;6.47;;;5.90;;
21624;SDS011;10974;51.034;3.744;2022-07-22T08:47:28;6.90;;;5.60;;
21624;SDS011;10974;51.034;3.744;2022-07-22T08:49:54;6.70;;;6.10;;
21624;SDS011;10974;51.034;3.744;2022-07-22T08:52:20;6.53;;;5.97;;
21624;SDS011;10974;51.034;3.744;2022-07-22T08:54:46;7.70;;;6.90;;
21624;SDS011;10974;51.034;3.744;2022-07-22T08:57:13;7.63;;;6.93;;
21624;SDS011;10974;51.034;3.744;2022-07-22T08:59:48;7.60;;;7.00;;
21624;SDS011;10974;51.034;3.744;2022-07-22T09:02:15;7.93;;;7.17;;
21624;SDS011;10974;51.034;3.744;2022-07-22T09:04:57;6.53;;;5.93;;
21624;SDS011;10974;51.034;3.744;2022-07-22T09:07:28;6.37;;;5.80;;
21624;SDS011;10974;51.034;3.744;2022-07-22T09:09:54;5.10;;;4.70;;
21624;SDS011;10974;51.034;3.744;2022-07-22T09:12:21;5.50;;;5.00;;
21624;SDS011;10974;51.034;3.744;2022-07-22T09:14:52;5.63;;;5.13;;
21624;SDS011;10974;51.034;3.744;2022-07-22T09:17:27;5.00;;;4.50;;
21624;SDS011;10974;51.034;3.744;2022-07-22T09:19:59;3.47;;;3.23;;
21624;SDS011;10974;51.034;3.744;2022-07-22T09:25:18;4.23;;;3.83;;
21624;SDS011;10974;51.034;3.744;2022-07-22T09:27:56;4.70;;;4.30;;
21624;SDS011;10974;51.034;3.744;2022-07-22T09:30:32;4.60;;;4.20;;
21624;SDS011;10974;51.034;3.744;2022-07-22T09:33:06;4.33;;;4.03;;
21624;SDS011;10974;51.034;3.744;2022-07-22T09:35:32;4.13;;;3.83;;
21624;SDS011;10974;51.034;3.744;2022-07-22T09:38:00;4.40;;;3.50;;
21624;SDS011;10974;51.034;3.744;2022-07-22T09:40:34;4.37;;;3.97;;
21624;SDS011;10974;51.034;3.744;2022-07-22T09:43:02;4.00;;;3.60;;
21624;SDS011;10974;51.034;3.744;2022-07-22T09:45:31;3.90;;;3.60;;
21624;SDS011;10974;51.034;3.744;2022-07-22T09:48:01;5.17;;;4.77;;
21624;SDS011;10974;51.034;3.744;2022-07-22T09:50:28;4.80;;;4.40;;
21624;SDS011;10974;51.034;3.744;2022-07-22T09:52:59;5.10;;;4.60;;
21624;SDS011;10974;51.034;3.744;2022-07-22T09:55:26;4.20;;;3.90;;
21624;SDS011;10974;51.034;3.744;2022-07-22T09:57:53;7.80;;;3.93;;
21624;SDS011;10974;51.034;3.744;2022-07-22T10:00:20;3.27;;;3.07;;
21624;SDS011;10974;51.034;3.744;2022-07-22T10:02:51;4.10;;;3.00;;
21624;SDS011;10974;51.034;3.744;2022-07-22T10:05:24;3.40;;;3.10;;
21624;SDS011;10974;51.034;3.744;2022-07-22T10:07:57;3.30;;;3.10;;
21624;SDS011;10974;51.034;3.744;2022-07-22T10:10:26;3.00;;;2.80;;
21624;SDS011;10974;51.034;3.744;2022-07-22T10:12:53;2.60;;;2.40;;
21624;SDS011;10974;51.034;3.744;2022-07-22T10:15:21;2.53;;;2.33;;
21624;SDS011;10974;51.034;3.744;2022-07-22T10:17:48;2.60;;;2.40;;
21624;SDS011;10974;51.034;3.744;2022-07-22T10:20:26;2.50;;;2.40;;
21624;SDS011;10974;51.034;3.744;2022-07-22T10:25:20;2.10;;;2.00;;
21624;SDS011;10974;51.034;3.744;2022-07-22T10:27:56;2.13;;;2.03;;
21624;SDS011;10974;51.034;3.744;2022-07-22T10:33:02;2.10;;;2.00;;
21624;SDS011;10974;51.034;3.744;2022-07-22T10:35:33;2.07;;;1.90;;
21624;SDS011;10974;51.034;3.744;2022-07-22T10:38:02;2.43;;;2.23;;
21624;SDS011;10974;51.034;3.744;2022-07-22T10:40:31;1.90;;;1.80;;
21624;SDS011;10974;51.034;3.744;2022-07-22T10:43:11;1.60;;;1.50;;
21624;SDS011;10974;51.034;3.744;2022-07-22T10:45:39;1.60;;;1.50;;
21624;SDS011;10974;51.034;3.744;2022-07-22T10:48:07;1.67;;;1.57;;
21624;SDS011;10974;51.034;3.744;2022-07-22T10:59:13;2.50;;;2.30;;
21624;SDS011;10974;51.034;3.744;2022-07-22T11:01:43;2.13;;;1.93;;
21624;SDS011;10974;51.034;3.744;2022-07-22T11:04:12;2.30;;;2.10;;
21624;SDS011;10974;51.034;3.744;2022-07-22T11:06:38;2.40;;;2.20;;
21624;SDS011;10974;51.034;3.744;2022-07-22T11:09:08;2.10;;;2.00;;
21624;SDS011;10974;51.034;3.744;2022-07-22T11:14:15;2.30;;;2.10;;
21624;SDS011;10974;51.034;3.744;2022-07-22T11:16:41;2.10;;;2.00;;
21624;SDS011;10974;51.034;3.744;2022-07-22T11:19:08;2.37;;;2.20;;
21624;SDS011;10974;51.034;3.744;2022-07-22T11:21:34;2.67;;;2.47;;
21624;SDS011;10974;51.034;3.744;2022-07-22T11:24:01;2.17;;;2.07;;
21624;SDS011;10974;51.034;3.744;2022-07-22T11:29:01;1.90;;;1.80;;
21624;SDS011;10974;51.034;3.744;2022-07-22T11:31:27;2.10;;;2.00;;
21624;SDS011;10974;51.034;3.744;2022-07-22T11:34:03;2.00;;;1.90;;
21624;SDS011;10974;51.034;3.744;2022-07-22T11:36:35;1.90;;;1.80;;
21624;SDS011;10974;51.034;3.744;2022-07-22T11:39:02;2.10;;;2.00;;
21624;SDS011;10974;51.034;3.744;2022-07-22T11:41:29;2.00;;;1.90;;
21624;SDS011;10974;51.034;3.744;2022-07-22T11:43:56;2.33;;;2.13;;
21624;SDS011;10974;51.034;3.744;2022-07-22T11:46:24;2.00;;;1.90;;
21624;SDS011;10974;51.034;3.744;2022-07-22T11:48:51;2.07;;;1.97;;
21624;SDS011;10974;51.034;3.744;2022-07-22T11:51:18;2.50;;;2.30;;
21624;SDS011;10974;51.034;3.744;2022-07-22T11:53:44;2.27;;;2.07;;
21624;SDS011;10974;51.034;3.744;2022-07-22T11:56:10;2.30;;;2.17;;
21624;SDS011;10974;51.034;3.744;2022-07-22T11:58:38;2.30;;;2.20;;
21624;SDS011;10974;51.034;3.744;2022-07-22T12:01:06;2.00;;;1.90;;
21624;SDS011;10974;51.034;3.744;2022-07-22T12:03:42;2.23;;;2.03;;
21624;SDS011;10974;51.034;3.744;2022-07-22T12:06:12;1.90;;;1.80;;
21624;SDS011;10974;51.034;3.744;2022-07-22T12:08:41;1.70;;;1.60;;
21624;SDS011;10974;51.034;3.744;2022-07-22T12:11:09;2.10;;;1.90;;
21624;SDS011;10974;51.034;3.744;2022-07-22T12:13:38;1.70;;;1.60;;
21624;SDS011;10974;51.034;3.744;2022-07-22T12:16:27;1.87;;;1.77;;
21624;SDS011;10974;51.034;3.744;2022-07-22T12:19:03;1.60;;;1.50;;
21624;SDS011;10974;51.034;3.744;2022-07-22T12:21:32;1.60;;;1.50;;
21624;SDS011;10974;51.034;3.744;2022-07-22T12:32:07;1.10;;;1.10;;
21624;SDS011;10974;51.034;3.744;2022-07-22T12:37:21;1.80;;;1.70;;
21624;SDS011;10974;51.034;3.744;2022-07-22T12:39:59;1.50;;;1.40;;
21624;SDS011;10974;51.034;3.744;2022-07-22T12:42:32;1.60;;;1.50;;
21624;SDS011;10974;51.034;3.744;2022-07-22T12:47:46;1.80;;;1.70;;
21624;SDS011;10974;51.034;3.744;2022-07-22T12:50:42;1.77;;;1.67;;
21624;SDS011;10974;51.034;3.744;2022-07-22T12:53:18;1.33;;;1.33;;
21624;SDS011;10974;51.034;3.744;2022-07-22T12:55:47;1.70;;;1.60;;
21624;SDS011;10974;51.034;3.744;2022-07-22T12:58:20;1.70;;;1.60;;
21624;SDS011;10974;51.034;3.744;2022-07-22T13:00:47;1.80;;;1.70;;
21624;SDS011;10974;51.034;3.744;2022-07-22T13:03:15;1.40;;;1.30;;
21624;SDS011;10974;51.034;3.744;2022-07-22T13:05:43;1.70;;;1.60;;
21624;SDS011;10974;51.034;3.744;2022-07-22T13:08:11;2.07;;;1.77;;
21624;SDS011;10974;51.034;3.744;2022-07-22T13:10:36;1.77;;;1.67;;
21624;SDS011;10974;51.034;3.744;2022-07-22T13:13:02;1.93;;;1.83;;
21624;SDS011;10974;51.034;3.744;2022-07-22T13:15:28;1.67;;;1.57;;
21624;SDS011;10974;51.034;3.744;2022-07-22T13:17:53;1.83;;;1.73;;
21624;SDS011;10974;51.034;3.744;2022-07-22T13:20:19;1.73;;;1.63;;
21624;SDS011;10974;51.034;3.744;2022-07-22T13:22:47;1.60;;;1.50;;
21624;SDS011;10974;51.034;3.744;2022-07-22T13:25:13;2.17;;;1.97;;
21624;SDS011;10974;51.034;3.744;2022-07-22T13:27:39;1.50;;;1.40;;
21624;SDS011;10974;51.034;3.744;2022-07-22T13:30:05;1.60;;;1.50;;
21624;SDS011;10974;51.034;3.744;2022-07-22T13:32:32;1.57;;;1.47;;
21624;SDS011;10974;51.034;3.744;2022-07-22T13:34:58;1.47;;;1.37;;
21624;SDS011;10974;51.034;3.744;2022-07-22T13:37:24;1.50;;;1.40;;
21624;SDS011;10974;51.034;3.744;2022-07-22T13:39:49;1.60;;;1.50;;
21624;SDS011;10974;51.034;3.744;2022-07-22T13:42:16;1.40;;;1.30;;
21624;SDS011;10974;51.034;3.744;2022-07-22T13:44:45;1.20;;;1.20;;
21624;SDS011;10974;51.034;3.744;2022-07-22T13:47:12;1.30;;;1.30;;
21624;SDS011;10974;51.034;3.744;2022-07-22T13:49:38;1.50;;;1.40;;
21624;SDS011;10974;51.034;3.744;2022-07-22T13:52:04;1.47;;;1.37;;
21624;SDS011;10974;51.034;3.744;2022-07-22T13:54:30;1.40;;;1.40;;
21624;SDS011;10974;51.034;3.744;2022-07-22T13:56:57;1.60;;;1.50;;
21624;SDS011;10974;51.034;3.744;2022-07-22T13:59:24;1.30;;;1.20;;
21624;SDS011;10974;51.034;3.744;2022-07-22T14:01:50;1.40;;;1.30;;
21624;SDS011;10974;51.034;3.744;2022-07-22T14:04:15;1.40;;;1.30;;
21624;SDS011;10974;51.034;3.744;2022-07-22T14:06:41;1.73;;;1.63;;
21624;SDS011;10974;51.034;3.744;2022-07-22T14:09:07;1.80;;;1.70;;
21624;SDS011;10974;51.034;3.744;2022-07-22T14:11:32;1.23;;;1.23;;
21624;SDS011;10974;51.034;3.744;2022-07-22T14:14:01;1.57;;;1.47;;
21624;SDS011;10974;51.034;3.744;2022-07-22T14:16:28;1.17;;;1.10;;
21624;SDS011;10974;51.034;3.744;2022-07-22T14:19:07;1.40;;;1.30;;
21624;SDS011;10974;51.034;3.744;2022-07-22T14:21:34;1.30;;;1.30;;
21624;SDS011;10974;51.034;3.744;2022-07-22T14:24:01;1.20;;;1.10;;
21624;SDS011;10974;51.034;3.744;2022-07-22T14:26:27;1.30;;;1.20;;
21624;SDS011;10974;51.034;3.744;2022-07-22T14:28:54;1.30;;;1.20;;
21624;SDS011;10974;51.034;3.744;2022-07-22T14:31:20;1.57;;;1.10;;
21624;SDS011;10974;51.034;3.744;2022-07-22T14:33:46;1.30;;;1.20;;
21624;SDS011;10974;51.034;3.744;2022-07-22T14:36:12;1.33;;;1.23;;
21624;SDS011;10974;51.034;3.744;2022-07-22T14:38:38;1.33;;;1.27;;
21624;SDS011;10974;51.034;3.744;2022-07-22T14:41:04;0.80;;;0.80;;
21624;SDS011;10974;51.034;3.744;2022-07-22T14:43:29;1.27;;;1.17;;
21624;SDS011;10974;51.034;3.744;2022-07-22T14:45:55;1.23;;;1.13;;
21624;SDS011;10974;51.034;3.744;2022-07-22T14:48:21;1.30;;;1.20;;
21624;SDS011;10974;51.034;3.744;2022-07-22T14:50:47;1.10;;;1.10;;
21624;SDS011;10974;51.034;3.744;2022-07-22T14:53:12;1.17;;;1.17;;
21624;SDS011;10974;51.034;3.744;2022-07-22T14:55:38;1.10;;;1.00;;
21624;SDS011;10974;51.034;3.744;2022-07-22T14:58:04;1.20;;;1.10;;
21624;SDS011;10974;51.034;3.744;2022-07-22T15:00:30;1.20;;;0.90;;
21624;SDS011;10974;51.034;3.744;2022-07-22T15:02:56;1.00;;;1.00;;
21624;SDS011;10974;51.034;3.744;2022-07-22T15:05:21;1.07;;;1.07;;
21624;SDS011;10974;51.034;3.744;2022-07-22T15:07:49;1.00;;;1.00;;
21624;SDS011;10974;51.034;3.744;2022-07-22T15:10:14;0.90;;;0.90;;
21624;SDS011;10974;51.034;3.744;2022-07-22T15:12:40;1.03;;;1.03;;
21624;SDS011;10974;51.034;3.744;2022-07-22T15:15:06;1.00;;;1.00;;
21624;SDS011;10974;51.034;3.744;2022-07-22T15:17:33;1.10;;;1.10;;
21624;SDS011;10974;51.034;3.744;2022-07-22T15:20:00;1.20;;;1.10;;
21624;SDS011;10974;51.034;3.744;2022-07-22T15:22:26;1.33;;;1.23;;